map of KLKR home
KLKR - Airport
Location
City:  Lancaster, South Carolina, United States
Name:Lancaster County-McWhirter Field
ICAO:KLKR
FAA LID:LKR

Details
Type:Airport (Airfield)
Use:Public/Civil
Latitude:3443'22"N (34.722904)
Longitude:8051'17"W (-80.854589)
Datum:WGS 1984
Elevation:485 ft (148 m)
Variation:7.72W (WMM2015 magnetic declination)
-0.06 annual change
Runways:1
Longest:6004 × 101 ft (1830 × 31 m), paved

Time
Time Zone:UTC-5 (DST-4)
Local Time:

Weather
METAR:KLKR 170615Z AUTO 00000KT 10SM 19/19 A3009 RMK AO2

Related Locations
Nearby:
Farthest:YAUG: 11531 mi / 18558 km
Augusta [Augusta Airport], WA, AU

Find:

   beyond  
but within

Other Information
Maps:
NOTAMs:
Links:
Sources:

  
  • flag of United States
  • flag of South Carolina
  

Sectional Chart

Flight Planning
at skyvector.com

Satellite Image

Google Maps Satellite view

 

Copyright © 2004-2018 Karl L. Swartz. All rights reserved.
The Great Circle Mapper name and logo are trademarks of the Great Circle Mapper.
All other trademarks mentioned herein belong to their respective owners.
Please see credits for attibutions and further copyright information.

  Follow gcmap on Facebook Follow gcmap on Twitter Follow gcmap on Google+ GCmap on LinkedIn

hCard Microformat

Geo Microformat